createdAt,value
2023-04-25T00:02:16.874Z,2.55
2023-04-25T00:04:45.866Z,3.07
2023-04-25T00:07:14.433Z,3.10
2023-04-25T00:09:44.558Z,3.05
2023-04-25T00:12:12.722Z,2.78
2023-04-25T00:14:42.390Z,2.40
2023-04-25T00:17:10.595Z,2.43
2023-04-25T00:19:38.875Z,3.07
2023-04-25T00:22:07.217Z,2.87
2023-04-25T00:24:35.372Z,2.60
2023-04-25T00:27:03.527Z,2.57
2023-04-25T00:29:31.726Z,2.20
2023-04-25T00:32:01.714Z,2.63
2023-04-25T00:34:30.037Z,2.70
2023-04-25T00:36:58.549Z,2.77
2023-04-25T00:39:26.730Z,2.67
2023-04-25T00:41:56.708Z,2.90
2023-04-25T00:44:27.676Z,2.40
2023-04-25T00:46:56.572Z,2.58
2023-04-25T00:49:26.103Z,2.40
2023-04-25T00:51:54.335Z,2.50
2023-04-25T00:54:22.937Z,2.70
2023-04-25T00:56:51.264Z,2.53
2023-04-25T00:59:21.156Z,3.17
2023-04-25T01:01:49.413Z,3.00
2023-04-25T01:04:17.799Z,2.60
2023-04-25T01:06:48.050Z,2.88
2023-04-25T01:09:17.151Z,2.87
2023-04-25T01:11:46.676Z,3.37
2023-04-25T01:14:14.909Z,3.10
2023-04-25T01:16:43.743Z,3.27
2023-04-25T01:19:13.314Z,3.33
2023-04-25T01:21:43.102Z,3.15
2023-04-25T01:24:11.504Z,3.40
2023-04-25T01:26:41.132Z,3.60
2023-04-25T01:29:10.326Z,3.42
2023-04-25T01:31:39.379Z,3.57
2023-04-25T01:34:07.922Z,3.42
2023-04-25T01:36:36.569Z,3.90
2023-04-25T01:39:06.562Z,4.27
2023-04-25T01:41:36.273Z,3.65
2023-04-25T01:44:05.469Z,3.30
2023-04-25T01:46:34.983Z,3.90
2023-04-25T01:49:03.482Z,3.33
2023-04-25T01:51:32.618Z,4.03
2023-04-25T01:54:01.479Z,3.63
2023-04-25T01:56:34.373Z,3.77
2023-04-25T01:59:03.418Z,3.97
2023-04-25T02:01:54.290Z,3.37
2023-04-25T02:04:28.540Z,3.70
2023-04-25T02:06:57.151Z,3.63
2023-04-25T02:09:31.064Z,3.80
2023-04-25T02:12:01.456Z,3.87
2023-04-25T02:14:36.702Z,3.80
2023-04-25T02:17:14.998Z,3.90
2023-04-25T02:19:43.371Z,3.73
2023-04-25T02:22:11.749Z,3.80
2023-04-25T02:24:41.187Z,4.43
2023-04-25T02:27:10.900Z,3.77
2023-04-25T02:29:39.144Z,3.23
2023-04-25T02:32:07.437Z,3.40
2023-04-25T02:34:35.626Z,3.87
2023-04-25T02:37:03.921Z,3.80
2023-04-25T02:39:32.025Z,4.07
2023-04-25T02:42:00.221Z,4.03
2023-04-25T02:44:32.749Z,4.38
2023-04-25T02:47:00.915Z,3.40
2023-04-25T02:49:29.118Z,3.53
2023-04-25T02:51:57.246Z,4.93
2023-04-25T02:54:25.629Z,4.53
2023-04-25T02:56:54.069Z,3.33
2023-04-25T02:59:27.875Z,3.80
2023-04-25T03:01:57.450Z,3.17
2023-04-25T03:04:26.354Z,3.90
2023-04-25T03:06:55.272Z,3.83
2023-04-25T03:09:23.811Z,3.53
2023-04-25T03:11:54.099Z,3.47
2023-04-25T03:14:22.514Z,13.73
2023-04-25T03:16:50.834Z,3.33
2023-04-25T03:19:21.333Z,3.77
2023-04-25T03:21:50.547Z,3.70
2023-04-25T03:24:19.585Z,3.67
2023-04-25T03:26:47.818Z,4.23
2023-04-25T03:29:16.007Z,3.80
2023-04-25T03:31:45.534Z,4.30
2023-04-25T03:34:15.614Z,4.20
2023-04-25T03:36:45.389Z,4.43
2023-04-25T03:39:14.404Z,3.77
2023-04-25T03:41:47.333Z,3.70
2023-04-25T03:44:16.810Z,3.83
2023-04-25T03:46:45.550Z,3.87
2023-04-25T03:49:14.532Z,3.10
2023-04-25T03:51:59.558Z,3.30
2023-04-25T03:54:27.837Z,3.67
2023-04-25T03:57:08.395Z,3.10
2023-04-25T03:59:39.976Z,2.90
2023-04-25T04:02:10.632Z,3.23
2023-04-25T04:04:39.176Z,2.80
2023-04-25T04:07:11.572Z,3.23
2023-04-25T04:09:42.695Z,3.17
2023-04-25T04:12:16.560Z,3.13
2023-04-25T04:14:44.979Z,3.53
2023-04-25T04:17:13.662Z,6.93
2023-04-25T04:19:42.018Z,10.63
2023-04-25T04:22:21.538Z,7.00
2023-04-25T04:24:50.837Z,6.57
2023-04-25T04:27:24.102Z,3.93
2023-04-25T04:30:15.761Z,3.00
2023-04-25T04:32:58.700Z,3.80
2023-04-25T04:35:27.205Z,3.00
2023-04-25T04:37:57.268Z,3.10
2023-04-25T04:40:28.749Z,2.87
2023-04-25T04:43:06.984Z,2.97
2023-04-25T04:45:57.089Z,2.63
2023-04-25T04:48:42.573Z,2.70
2023-04-25T04:51:39.292Z,2.97
2023-04-25T04:54:19.244Z,3.37
2023-04-25T04:57:22.550Z,3.10
2023-04-25T05:00:12.007Z,3.30
2023-04-25T05:02:43.190Z,3.30
2023-04-25T05:05:17.514Z,2.87
2023-04-25T05:08:00.623Z,3.63
2023-04-25T05:10:48.674Z,3.37
2023-04-25T05:13:35.853Z,3.10
2023-04-25T05:16:23.046Z,3.07
2023-04-25T05:18:57.946Z,3.57
2023-04-25T05:21:35.338Z,3.90
2023-04-25T05:24:11.674Z,3.90
2023-04-25T05:26:54.074Z,3.40
2023-04-25T05:29:37.472Z,3.60
2023-04-25T05:32:28.295Z,3.93
2023-04-25T05:34:57.245Z,4.10
2023-04-25T05:37:28.859Z,3.97
2023-04-25T05:40:00.967Z,3.50
2023-04-25T05:42:53.032Z,4.47
2023-04-25T05:45:30.457Z,3.50
2023-04-25T05:48:08.010Z,3.72
2023-04-25T05:50:58.748Z,3.80
2023-04-25T05:53:47.207Z,3.07
2023-04-25T05:56:16.764Z,3.90
2023-04-25T05:58:46.341Z,4.20
2023-04-25T06:01:15.051Z,3.83
2023-04-25T06:03:44.440Z,4.60
2023-04-25T06:06:13.825Z,4.43
2023-04-25T06:08:42.719Z,4.40
2023-04-25T06:11:13.204Z,4.40
2023-04-25T06:13:41.589Z,4.63
2023-04-25T06:16:11.503Z,4.80
2023-04-25T06:18:40.206Z,5.07
2023-04-25T06:21:08.634Z,4.33
2023-04-25T06:23:36.868Z,5.27
2023-04-25T06:26:08.501Z,4.80
2023-04-25T06:28:39.598Z,4.88
2023-04-25T06:31:07.917Z,4.25
2023-04-25T06:33:37.654Z,5.03
2023-04-25T06:36:07.019Z,5.23
2023-04-25T06:38:36.375Z,5.30
2023-04-25T06:41:04.663Z,5.93
2023-04-25T06:43:36.383Z,5.63
2023-04-25T06:46:18.302Z,5.27
2023-04-25T06:48:51.341Z,5.27
2023-04-25T06:51:23.573Z,5.95
2023-04-25T06:53:54.787Z,5.10
2023-04-25T06:56:39.642Z,6.60
2023-04-25T06:59:13.355Z,5.85
2023-04-25T07:01:42.806Z,5.17
2023-04-25T07:04:19.982Z,5.50
2023-04-25T07:06:52.652Z,6.38
2023-04-25T07:09:25.944Z,6.27
2023-04-25T07:11:54.385Z,7.07
2023-04-25T07:14:22.748Z,9.33
2023-04-25T07:16:51.012Z,55.20
2023-04-25T07:19:20.678Z,110.50
2023-04-25T07:21:48.865Z,41.45
2023-04-25T07:24:17.606Z,47.67
2023-04-25T07:26:48.401Z,12.38
2023-04-25T07:29:26.751Z,6.57
2023-04-25T07:31:55.701Z,6.90
2023-04-25T07:34:25.643Z,5.43
2023-04-25T07:36:54.730Z,5.73
2023-04-25T07:39:24.404Z,5.30
2023-04-25T07:41:55.197Z,5.20
2023-04-25T07:44:27.434Z,5.55
2023-04-25T07:46:55.601Z,6.15
2023-04-25T07:49:25.426Z,5.82
2023-04-25T07:51:53.706Z,6.18
2023-04-25T07:54:22.963Z,6.13
2023-04-25T07:56:58.768Z,5.70
2023-04-25T07:59:31.007Z,5.20
2023-04-25T08:02:03.434Z,4.82
2023-04-25T08:04:33.565Z,3.20
2023-04-25T08:07:05.369Z,3.75
2023-04-25T08:09:40.972Z,2.83
2023-04-25T08:12:15.336Z,3.30
2023-04-25T08:14:43.897Z,3.43
2023-04-25T08:17:13.062Z,3.60
2023-04-25T08:19:44.684Z,3.57
2023-04-25T08:22:21.314Z,3.95
2023-04-25T08:24:55.491Z,3.40
2023-04-25T08:27:24.676Z,3.33
2023-04-25T08:29:53.383Z,3.30
2023-04-25T08:32:22.904Z,3.43
2023-04-25T08:35:12.939Z,3.37
2023-04-25T08:37:41.197Z,3.63
2023-04-25T08:40:17.828Z,3.97
2023-04-25T08:42:59.429Z,4.15
2023-04-25T08:45:31.302Z,4.78
2023-04-25T08:48:00.763Z,3.73
2023-04-25T08:50:31.728Z,3.40
2023-04-25T08:53:06.406Z,3.35
2023-04-25T08:55:35.595Z,3.13
2023-04-25T08:58:04.821Z,2.97
2023-04-25T09:00:33.361Z,3.15
2023-04-25T09:03:01.926Z,3.35
2023-04-25T09:05:36.455Z,3.80
2023-04-25T09:08:04.987Z,3.42
2023-04-25T09:10:33.404Z,3.33
2023-04-25T09:13:06.865Z,3.03
2023-04-25T09:15:52.154Z,3.45
2023-04-25T09:18:38.591Z,3.70
2023-04-25T09:21:14.388Z,3.92
2023-04-25T09:23:48.299Z,3.60
2023-04-25T09:26:18.939Z,3.72
2023-04-25T09:28:48.952Z,3.60
2023-04-25T09:31:25.449Z,4.18
2023-04-25T09:34:04.074Z,4.35
2023-04-25T09:36:42.958Z,4.20
2023-04-25T09:39:23.165Z,4.93
2023-04-25T09:42:04.534Z,4.95
2023-04-25T09:44:33.820Z,5.25
2023-04-25T09:47:04.446Z,4.68
2023-04-25T09:49:33.606Z,4.88
2023-04-25T09:52:07.513Z,5.25
2023-04-25T09:54:42.755Z,4.70
2023-04-25T09:57:18.764Z,3.63
2023-04-25T09:59:49.697Z,3.70
2023-04-25T10:02:21.306Z,3.17
2023-04-25T10:04:56.394Z,3.13
2023-04-25T10:07:40.651Z,3.67
2023-04-25T10:10:15.696Z,3.30
2023-04-25T10:12:45.217Z,3.63
2023-04-25T10:15:15.806Z,4.35
2023-04-25T10:17:45.772Z,4.13
2023-04-25T10:20:14.871Z,4.05
2023-04-25T10:22:49.000Z,3.85
2023-04-25T10:25:17.588Z,3.97
2023-04-25T10:27:45.983Z,3.33
2023-04-25T10:30:17.412Z,4.25
2023-04-25T10:32:48.109Z,3.85
2023-04-25T10:35:19.407Z,4.35
2023-04-25T10:38:06.332Z,4.72
2023-04-25T10:40:35.191Z,4.63
2023-04-25T10:43:38.471Z,4.38
2023-04-25T10:46:20.486Z,4.47
2023-04-25T10:48:51.407Z,4.50
2023-04-25T10:51:23.840Z,4.18
2023-04-25T10:54:03.073Z,4.25
2023-04-25T10:56:33.265Z,3.83
2023-04-25T10:59:11.099Z,3.60
2023-04-25T11:01:42.240Z,4.60
2023-04-25T11:04:24.127Z,3.65
2023-04-25T11:07:15.296Z,4.28
2023-04-25T11:09:47.672Z,4.20
2023-04-25T11:12:16.078Z,3.72
2023-04-25T11:14:44.388Z,3.72
2023-04-25T11:17:12.866Z,2.97
2023-04-25T11:19:41.241Z,2.95
2023-04-25T11:22:14.102Z,3.92
2023-04-25T11:24:42.738Z,3.03
2023-04-25T11:27:12.437Z,2.65
2023-04-25T11:29:40.791Z,2.88
2023-04-25T11:32:09.673Z,3.05
2023-04-25T11:34:38.040Z,2.80
2023-04-25T11:37:06.933Z,2.40
2023-04-25T11:39:35.793Z,2.35
2023-04-25T11:42:08.337Z,2.03
2023-04-25T11:44:43.362Z,1.73
2023-04-25T11:47:11.542Z,1.60
2023-04-25T11:49:39.662Z,1.60
2023-04-25T11:52:09.636Z,1.60
2023-04-25T11:54:38.924Z,1.63
2023-04-25T11:57:07.376Z,1.13
2023-04-25T11:59:36.092Z,1.15
2023-04-25T12:02:07.950Z,1.10
2023-04-25T12:04:36.636Z,1.10
2023-04-25T12:07:05.295Z,1.52
2023-04-25T12:09:35.812Z,1.00
2023-04-25T12:12:04.737Z,1.15
2023-04-25T12:14:35.191Z,1.25
2023-04-25T12:17:08.852Z,0.90
2023-04-25T12:19:41.176Z,1.02
2023-04-25T12:22:23.156Z,1.23
2023-04-25T12:24:51.629Z,0.93
2023-04-25T12:27:20.309Z,0.98
2023-04-25T12:29:56.681Z,0.90
2023-04-25T12:32:27.278Z,0.90
2023-04-25T12:34:55.545Z,1.00
2023-04-25T12:37:23.789Z,1.00
2023-04-25T12:39:52.240Z,0.80
2023-04-25T12:42:20.534Z,0.70
2023-04-25T12:44:48.700Z,1.00
2023-04-25T12:47:17.090Z,0.98
2023-04-25T12:49:46.606Z,1.33
2023-04-25T12:52:14.834Z,1.38
2023-04-25T12:54:43.023Z,1.30
2023-04-25T12:57:12.275Z,1.20
2023-04-25T12:59:40.537Z,1.40
2023-04-25T13:02:08.846Z,1.27
2023-04-25T13:04:37.300Z,1.13
2023-04-25T13:07:07.185Z,1.40
2023-04-25T13:09:35.498Z,1.30
2023-04-25T13:12:03.639Z,1.10
2023-04-25T13:14:31.869Z,1.30
2023-04-25T13:17:00.222Z,1.60
2023-04-25T13:19:28.530Z,1.40
2023-04-25T13:21:56.867Z,1.67
2023-04-25T13:24:26.950Z,1.52
2023-04-25T13:26:55.132Z,1.40
2023-04-25T13:29:23.334Z,1.23
2023-04-25T13:31:51.558Z,1.58
2023-04-25T13:34:19.714Z,1.40
2023-04-25T13:36:48.009Z,1.45
2023-04-25T13:39:16.243Z,1.30
2023-04-25T13:41:45.923Z,1.50
2023-04-25T13:44:14.070Z,1.88
2023-04-25T13:46:46.968Z,1.83
2023-04-25T13:49:16.522Z,1.60
2023-04-25T13:51:44.910Z,1.65
2023-04-25T13:54:13.234Z,1.58
2023-04-25T13:56:43.132Z,1.73
2023-04-25T13:59:13.090Z,1.30
2023-04-25T14:01:41.389Z,1.90
2023-04-25T14:04:10.418Z,1.90
2023-04-25T14:06:38.697Z,1.52
2023-04-25T14:09:08.066Z,1.50
2023-04-25T14:11:36.338Z,1.45
2023-04-25T14:14:05.001Z,1.70
2023-04-25T14:16:36.393Z,1.52
2023-04-25T14:19:04.785Z,1.92
2023-04-25T14:21:34.258Z,1.98
2023-04-25T14:24:02.575Z,2.47
2023-04-25T14:26:31.139Z,1.88
2023-04-25T14:28:59.566Z,2.00
2023-04-25T14:31:28.081Z,1.58
2023-04-25T14:33:59.418Z,1.65
2023-04-25T14:36:28.517Z,2.08
2023-04-25T14:38:56.976Z,1.80
2023-04-25T14:41:25.917Z,1.90
2023-04-25T14:43:54.858Z,2.08
2023-04-25T14:46:24.260Z,2.00
2023-04-25T14:48:53.160Z,2.47
2023-04-25T14:51:22.771Z,2.78
2023-04-25T14:53:51.503Z,2.30
2023-04-25T14:56:20.134Z,2.38
2023-04-25T14:58:48.329Z,2.70
2023-04-25T15:01:16.818Z,2.22
2023-04-25T15:03:45.263Z,2.50
2023-04-25T15:06:13.726Z,2.78
2023-04-25T15:08:43.317Z,2.58
2023-04-25T15:11:12.946Z,2.92
2023-04-25T15:13:41.405Z,2.85
2023-04-25T15:16:09.684Z,2.70
2023-04-25T15:18:37.927Z,3.03
2023-04-25T15:21:06.550Z,3.17
2023-04-25T15:23:34.724Z,3.05
2023-04-25T15:26:04.374Z,2.83
2023-04-25T15:28:34.628Z,2.45
2023-04-25T15:31:02.940Z,2.53
2023-04-25T15:33:31.291Z,2.45
2023-04-25T15:35:59.722Z,2.78
2023-04-25T15:38:28.006Z,3.17
2023-04-25T15:40:56.282Z,2.63
2023-04-25T15:43:26.395Z,2.47
2023-04-25T15:45:54.792Z,2.67
2023-04-25T15:48:23.105Z,2.42
2023-04-25T15:50:51.418Z,2.97
2023-04-25T15:53:19.748Z,2.60
2023-04-25T15:55:48.112Z,2.40
2023-04-25T15:58:16.432Z,2.03
2023-04-25T16:00:48.875Z,1.92
2023-04-25T16:03:17.825Z,1.58
2023-04-25T16:05:46.269Z,1.73
2023-04-25T16:08:14.565Z,1.77
2023-04-25T16:10:43.245Z,2.13
2023-04-25T16:13:11.890Z,1.63
2023-04-25T16:15:40.826Z,2.00
2023-04-25T16:18:10.435Z,2.17
2023-04-25T16:20:38.661Z,2.20
2023-04-25T16:23:06.894Z,1.83
2023-04-25T16:25:35.259Z,2.25
2023-04-25T16:28:03.491Z,2.60
2023-04-25T16:30:31.710Z,2.42
2023-04-25T16:33:03.761Z,2.55
2023-04-25T16:35:33.446Z,2.20
2023-04-25T16:38:02.280Z,2.50
2023-04-25T16:40:30.684Z,2.65
2023-04-25T16:42:58.882Z,1.90
2023-04-25T16:45:27.769Z,2.47
2023-04-25T16:47:56.178Z,1.98
2023-04-25T16:50:24.489Z,2.30
2023-04-25T16:52:54.532Z,2.20
2023-04-25T16:55:22.835Z,2.38
2023-04-25T16:57:51.070Z,2.35
2023-04-25T17:00:20.292Z,2.50
2023-04-25T17:02:48.581Z,2.35
2023-04-25T17:05:16.917Z,2.13
2023-04-25T17:07:45.073Z,4.80
2023-04-25T17:10:14.647Z,2.08
2023-04-25T17:12:43.067Z,2.30
2023-04-25T17:15:12.739Z,1.42
2023-04-25T17:17:41.105Z,3.13
2023-04-25T17:20:10.922Z,2.15
2023-04-25T17:22:39.258Z,2.35
2023-04-25T17:25:09.892Z,2.35
2023-04-25T17:27:39.487Z,1.88
2023-04-25T17:30:09.456Z,1.67
2023-04-25T17:32:37.792Z,1.40
2023-04-25T17:35:06.996Z,1.83
2023-04-25T17:37:35.308Z,1.63
2023-04-25T17:40:05.009Z,2.42
2023-04-25T17:42:33.204Z,2.05
2023-04-25T17:45:02.714Z,2.33
2023-04-25T17:47:32.034Z,2.25
2023-04-25T17:50:00.308Z,3.55
2023-04-25T17:52:29.131Z,4.20
2023-04-25T17:54:57.427Z,6.45
2023-04-25T17:57:26.321Z,8.82
2023-04-25T17:59:56.157Z,3.25
2023-04-25T18:02:26.062Z,3.30
2023-04-25T18:04:54.594Z,3.38
2023-04-25T18:07:23.531Z,4.05
2023-04-25T18:09:51.694Z,3.35
2023-04-25T18:12:21.489Z,3.40
2023-04-25T18:14:49.791Z,4.50
2023-04-25T18:17:18.185Z,5.90
2023-04-25T18:19:48.767Z,3.38
2023-04-25T18:22:17.630Z,2.65
2023-04-25T18:24:46.391Z,4.10
2023-04-25T18:27:14.825Z,4.10
2023-04-25T18:29:45.273Z,3.03
2023-04-25T18:32:13.899Z,3.28
2023-04-25T18:34:43.821Z,3.22
2023-04-25T18:37:14.329Z,3.35
2023-04-25T18:39:42.829Z,7.40
2023-04-25T18:42:11.121Z,8.80
2023-04-25T18:44:40.888Z,7.80
2023-04-25T18:47:10.215Z,5.00
2023-04-25T18:49:38.578Z,3.28
2023-04-25T18:52:10.240Z,3.17
2023-04-25T18:54:40.208Z,3.83
2023-04-25T18:57:09.327Z,3.78
2023-04-25T18:59:37.548Z,4.50
2023-04-25T19:02:06.566Z,5.37
2023-04-25T19:04:35.300Z,8.30
2023-04-25T19:07:04.100Z,4.57
2023-04-25T19:09:32.492Z,5.03
2023-04-25T19:12:03.197Z,4.23
2023-04-25T19:14:33.609Z,4.87
2023-04-25T19:17:02.083Z,4.40
2023-04-25T19:19:30.491Z,3.63
2023-04-25T19:21:59.976Z,3.10
2023-04-25T19:24:28.517Z,3.70
2023-04-25T19:26:56.801Z,3.35
2023-04-25T19:29:26.317Z,3.33
2023-04-25T19:31:57.091Z,2.77
2023-04-25T19:34:25.456Z,3.60
2023-04-25T19:36:54.267Z,3.83
2023-04-25T19:39:23.845Z,3.85
2023-04-25T19:41:52.146Z,3.97
2023-04-25T19:44:20.356Z,3.60
2023-04-25T19:46:50.513Z,3.60
2023-04-25T19:49:18.854Z,3.20
2023-04-25T19:51:47.075Z,3.33
2023-04-25T19:54:15.236Z,3.90
2023-04-25T19:56:43.582Z,3.03
2023-04-25T19:59:11.877Z,3.38
2023-04-25T20:01:40.263Z,3.37
2023-04-25T20:04:12.689Z,3.43
2023-04-25T20:06:40.918Z,3.10
2023-04-25T20:09:09.577Z,3.40
2023-04-25T20:11:37.743Z,4.25
2023-04-25T20:14:06.261Z,3.90
2023-04-25T20:16:34.500Z,3.67
2023-04-25T20:19:02.799Z,4.57
2023-04-25T20:21:33.211Z,3.80
2023-04-25T20:24:02.233Z,3.60
2023-04-25T20:26:33.780Z,4.07
2023-04-25T20:29:02.248Z,3.00
2023-04-25T20:31:31.947Z,3.27
2023-04-25T20:34:00.960Z,2.80
2023-04-25T20:36:29.685Z,3.70
2023-04-25T20:38:59.614Z,3.15
2023-04-25T20:41:27.964Z,3.25
2023-04-25T20:43:56.917Z,2.57
2023-04-25T20:46:25.451Z,2.95
2023-04-25T20:48:53.827Z,2.60
2023-04-25T20:51:23.042Z,3.30
2023-04-25T20:53:51.366Z,3.10
2023-04-25T20:56:20.973Z,2.77
2023-04-25T20:58:49.231Z,2.77
2023-04-25T21:01:18.439Z,3.23
2023-04-25T21:03:48.384Z,3.03
2023-04-25T21:06:16.937Z,3.10
2023-04-25T21:08:45.487Z,2.67
2023-04-25T21:11:13.852Z,2.67
2023-04-25T21:13:43.504Z,3.07
2023-04-25T21:16:12.185Z,2.47
2023-04-25T21:18:40.350Z,3.10
2023-04-25T21:21:09.019Z,2.90
2023-04-25T21:23:37.236Z,3.00
2023-04-25T21:26:05.983Z,3.23
2023-04-25T21:28:34.258Z,3.57
2023-04-25T21:31:04.638Z,2.75
2023-04-25T21:33:32.900Z,4.27
2023-04-25T21:36:01.190Z,3.20
2023-04-25T21:38:29.419Z,3.53
2023-04-25T21:40:57.651Z,3.57
2023-04-25T21:43:25.941Z,3.03
2023-04-25T21:46:19.017Z,3.00
2023-04-25T21:48:43.620Z,3.50
2023-04-25T21:51:12.070Z,3.93
2023-04-25T21:53:40.371Z,3.80
2023-04-25T21:56:09.053Z,3.10
2023-04-25T21:58:37.445Z,2.83
2023-04-25T22:01:05.871Z,3.40
2023-04-25T22:03:34.671Z,3.30
2023-04-25T22:06:04.887Z,2.97
2023-04-25T22:08:33.101Z,3.07
2023-04-25T22:11:02.883Z,3.03
2023-04-25T22:13:33.329Z,2.90
2023-04-25T22:16:01.533Z,3.07
2023-04-25T22:18:30.451Z,3.70
2023-04-25T22:20:58.700Z,3.00
2023-04-25T22:23:28.943Z,2.63
2023-04-25T22:25:57.050Z,3.47
2023-04-25T22:28:25.288Z,2.87
2023-04-25T22:30:53.532Z,3.33
2023-04-25T22:33:21.987Z,3.53
2023-04-25T22:35:50.186Z,3.50
2023-04-25T22:38:18.518Z,3.43
2023-04-25T22:40:48.331Z,3.10
2023-04-25T22:43:16.895Z,2.97
2023-04-25T22:45:45.277Z,3.47
2023-04-25T22:48:13.620Z,2.93
2023-04-25T22:50:41.758Z,3.80
2023-04-25T22:53:10.313Z,3.70
2023-04-25T22:55:38.592Z,3.90
2023-04-25T22:58:09.382Z,3.60
2023-04-25T23:00:37.916Z,3.93
2023-04-25T23:03:06.822Z,3.20
2023-04-25T23:05:35.073Z,3.93
2023-04-25T23:08:03.490Z,3.53
2023-04-25T23:10:31.770Z,3.83
2023-04-25T23:13:00.830Z,3.80
2023-04-25T23:15:31.293Z,3.30
2023-04-25T23:17:59.718Z,3.37
2023-04-25T23:20:28.033Z,3.70
2023-04-25T23:22:56.620Z,4.20
2023-04-25T23:25:24.949Z,3.57
2023-04-25T23:27:53.397Z,3.33
2023-04-25T23:30:22.408Z,3.70
2023-04-25T23:32:53.109Z,3.60
2023-04-25T23:35:21.540Z,3.53
2023-04-25T23:37:50.025Z,4.10
2023-04-25T23:40:18.549Z,3.60
2023-04-25T23:42:46.753Z,3.37
2023-04-25T23:45:16.507Z,3.43
2023-04-25T23:47:44.891Z,3.37
2023-04-25T23:50:14.465Z,3.53
2023-04-25T23:52:42.914Z,3.90
2023-04-25T23:55:11.324Z,3.43
2023-04-25T23:57:39.517Z,3.43
